createdAt,value
2022-11-05T00:00:59.469Z,1.83
2022-11-05T00:05:19.695Z,1.38
2022-11-05T00:09:30.331Z,1.60
2022-11-05T00:13:50.432Z,1.63
2022-11-05T00:17:52.084Z,1.70
2022-11-05T00:22:12.431Z,1.55
2022-11-05T00:26:14.461Z,1.30
2022-11-05T00:30:19.560Z,1.67
2022-11-05T00:34:21.525Z,1.20
2022-11-05T00:38:23.300Z,1.50
2022-11-05T00:42:43.570Z,1.92
2022-11-05T00:46:45.257Z,2.15
2022-11-05T00:50:46.978Z,1.98
2022-11-05T00:54:48.676Z,2.17
2022-11-05T00:58:50.373Z,1.63
2022-11-05T01:02:52.539Z,2.33
2022-11-05T01:06:55.216Z,2.10
2022-11-05T01:10:58.568Z,1.67
2022-11-05T01:15:00.680Z,1.55
2022-11-05T01:19:04.607Z,1.15
2022-11-05T01:23:12.100Z,1.33
2022-11-05T01:27:15.312Z,1.10
2022-11-05T01:31:16.936Z,1.55
2022-11-05T01:35:18.944Z,1.63
2022-11-05T01:39:20.598Z,1.40
2022-11-05T01:43:23.505Z,1.55
2022-11-05T01:47:47.837Z,1.20
2022-11-05T01:51:51.376Z,1.20
2022-11-05T01:55:56.096Z,1.75
2022-11-05T01:59:59.932Z,1.63
2022-11-05T02:04:08.981Z,1.33
2022-11-05T02:08:18.949Z,1.30
2022-11-05T02:12:21.877Z,1.30
2022-11-05T02:16:28.929Z,1.70
2022-11-05T02:20:52.216Z,1.80
2022-11-05T02:25:03.355Z,1.20
2022-11-05T02:29:54.499Z,1.70
2022-11-05T02:34:11.644Z,1.83
2022-11-05T02:38:18.939Z,1.50
2022-11-05T02:42:42.562Z,1.40
2022-11-05T02:46:52.942Z,1.73
2022-11-05T02:51:03.041Z,2.10
2022-11-05T02:55:38.663Z,1.95
2022-11-05T02:59:40.309Z,1.83
2022-11-05T03:03:52.973Z,1.50
2022-11-05T03:08:06.860Z,1.63
2022-11-05T03:12:14.582Z,1.55
2022-11-05T03:16:22.708Z,1.73
2022-11-05T03:20:41.463Z,1.10
2022-11-05T03:28:54.703Z,1.15
2022-11-05T03:33:03.691Z,1.05
2022-11-05T03:37:06.789Z,0.90
2022-11-05T03:41:14.171Z,0.90
2022-11-05T03:45:21.361Z,1.00
2022-11-05T03:49:28.789Z,1.35
2022-11-05T03:53:36.825Z,1.30
2022-11-05T03:57:44.240Z,0.85
2022-11-05T04:01:46.047Z,0.73
2022-11-05T04:06:07.998Z,0.93
2022-11-05T04:10:33.217Z,0.80
2022-11-05T04:14:34.924Z,0.98
2022-11-05T04:18:36.953Z,0.70
2022-11-05T04:22:56.876Z,0.95
2022-11-05T04:26:59.301Z,1.10
2022-11-05T04:31:00.957Z,1.73
2022-11-05T04:35:02.691Z,1.38
2022-11-05T04:39:04.366Z,1.05
2022-11-05T04:43:13.616Z,1.40
2022-11-05T04:47:16.650Z,1.05
2022-11-05T04:51:18.329Z,1.63
2022-11-05T04:55:20.031Z,1.05
2022-11-05T04:59:21.712Z,1.15
2022-11-05T05:03:23.824Z,1.50
2022-11-05T05:07:26.021Z,0.95
2022-11-05T05:11:27.634Z,1.38
2022-11-05T05:15:29.362Z,1.38
2022-11-05T05:19:51.001Z,1.05
2022-11-05T05:23:52.690Z,1.52
2022-11-05T05:27:57.552Z,1.67
2022-11-05T05:31:59.288Z,1.90
2022-11-05T12:29:12.156Z,2.85
2022-11-05T12:33:05.442Z,1.67
2022-11-05T12:37:45.048Z,1.77
2022-11-05T12:41:53.905Z,1.80
2022-11-05T12:46:01.576Z,1.85
2022-11-05T12:50:28.622Z,1.92
2022-11-05T12:54:33.288Z,2.28
2022-11-05T12:58:39.663Z,1.90
2022-11-05T13:03:05.151Z,2.00
2022-11-05T13:07:11.797Z,2.42
2022-11-05T13:11:26.416Z,2.05
2022-11-05T13:15:34.444Z,2.40
2022-11-05T13:19:41.898Z,2.20
2022-11-05T13:24:01.626Z,2.23
2022-11-05T13:28:33.013Z,2.85
2022-11-05T13:32:39.393Z,2.35
2022-11-05T13:37:21.125Z,2.53
2022-11-05T13:41:46.797Z,2.63
2022-11-05T13:46:06.551Z,3.10
2022-11-05T13:50:26.680Z,2.25
2022-11-05T13:54:52.689Z,2.95
2022-11-05T13:59:10.349Z,2.58
2022-11-05T14:03:20.624Z,2.75
2022-11-05T14:07:29.295Z,2.78
2022-11-05T14:11:37.471Z,2.83
2022-11-05T14:15:39.213Z,2.70
2022-11-05T14:20:02.793Z,3.05
2022-11-05T14:24:22.881Z,2.50
2022-11-05T14:28:36.581Z,2.53
2022-11-05T14:32:45.780Z,2.45
2022-11-05T14:37:12.661Z,2.30
2022-11-05T14:41:14.640Z,2.65
2022-11-05T14:45:32.770Z,2.55
2022-11-05T14:49:53.220Z,3.03
2022-11-05T14:54:00.435Z,2.45
2022-11-05T14:58:05.954Z,2.28
2022-11-05T15:02:15.756Z,2.50
2022-11-05T15:06:35.467Z,3.00
2022-11-05T15:10:37.712Z,2.72
2022-11-05T15:14:58.928Z,2.65
2022-11-05T15:19:01.391Z,2.53
2022-11-05T15:23:05.378Z,2.80
2022-11-05T15:27:15.829Z,2.72
2022-11-05T15:31:37.701Z,2.30
2022-11-05T15:35:41.508Z,3.72
2022-11-05T15:39:45.727Z,3.42
2022-11-05T15:43:49.409Z,3.15
2022-11-05T15:47:51.148Z,3.08
2022-11-05T15:51:52.876Z,2.90
2022-11-05T15:55:59.086Z,3.28
2022-11-05T16:00:08.395Z,3.35
2022-11-05T16:04:23.690Z,3.20
2022-11-05T16:08:28.168Z,3.13
2022-11-05T16:12:32.657Z,3.20
2022-11-05T16:16:34.503Z,3.78
2022-11-05T16:20:38.457Z,3.83
2022-11-05T16:24:42.814Z,4.15
2022-11-05T16:28:50.501Z,4.43
2022-11-05T16:32:52.567Z,3.60
2022-11-05T16:36:56.715Z,4.32
2022-11-05T16:41:00.379Z,4.35
2022-11-05T16:45:02.064Z,4.00
2022-11-05T16:49:04.260Z,3.90
2022-11-05T16:53:06.073Z,4.28
2022-11-05T16:57:23.520Z,3.67
2022-11-05T17:01:25.442Z,3.65
2022-11-05T17:05:29.804Z,4.38
2022-11-05T17:09:32.007Z,4.05
2022-11-05T17:13:34.114Z,3.95
2022-11-05T17:17:35.773Z,4.32
2022-11-05T17:21:37.449Z,4.20
2022-11-05T17:25:40.843Z,4.30
2022-11-05T17:29:42.519Z,3.88
2022-11-05T17:33:44.244Z,4.63
2022-11-05T17:37:46.183Z,3.65
2022-11-05T17:41:48.036Z,4.32
2022-11-05T17:45:52.080Z,4.25
2022-11-05T17:49:53.809Z,4.10
2022-11-05T17:53:55.841Z,4.05
2022-11-05T17:57:57.675Z,4.00
2022-11-05T18:01:59.585Z,4.15
2022-11-05T18:06:06.407Z,4.25
2022-11-05T18:10:08.499Z,4.22
2022-11-05T18:14:10.775Z,3.70
2022-11-05T18:18:12.716Z,3.60
2022-11-05T18:22:16.372Z,4.03
2022-11-05T18:26:18.436Z,4.13
2022-11-05T18:30:20.191Z,3.92
2022-11-05T18:34:21.846Z,4.45
2022-11-05T18:38:23.562Z,4.00
2022-11-05T18:42:25.515Z,4.18
2022-11-05T18:46:56.475Z,3.90
2022-11-05T18:50:50.893Z,4.20
2022-11-05T18:54:52.609Z,3.92
2022-11-05T18:59:14.822Z,3.70
2022-11-05T19:03:16.291Z,3.78
2022-11-05T19:07:19.266Z,3.20
2022-11-05T19:11:23.164Z,3.22
2022-11-05T19:15:24.821Z,3.25
2022-11-05T19:19:27.422Z,2.88
2022-11-05T19:23:29.104Z,3.55
2022-11-05T19:27:30.801Z,3.30
2022-11-05T19:31:32.550Z,3.20
2022-11-05T19:35:39.998Z,4.00
2022-11-05T19:39:43.348Z,3.13
2022-11-05T19:43:45.728Z,3.33
2022-11-05T19:47:47.492Z,2.92
2022-11-05T19:51:49.193Z,2.70
2022-11-05T19:55:50.835Z,3.15
2022-11-05T19:59:52.495Z,3.00
2022-11-05T20:03:56.252Z,3.58
2022-11-05T20:07:57.988Z,3.10
2022-11-05T20:11:59.863Z,2.83
2022-11-05T20:16:01.767Z,3.30
2022-11-05T20:20:04.290Z,3.10
2022-11-05T20:24:06.333Z,3.30
2022-11-05T20:28:08.153Z,3.47
2022-11-05T20:32:12.553Z,2.70
2022-11-05T20:36:16.762Z,2.70
2022-11-05T20:40:18.508Z,3.35
2022-11-05T20:44:20.244Z,3.05
2022-11-05T20:48:21.960Z,2.90
2022-11-05T20:52:23.635Z,2.55
2022-11-05T20:56:28.042Z,2.90
2022-11-05T21:00:29.785Z,2.47
2022-11-05T21:04:31.585Z,2.72
2022-11-05T21:08:34.043Z,4.03
2022-11-05T21:12:35.790Z,3.00
2022-11-05T21:16:37.468Z,2.60
2022-11-05T21:20:40.123Z,2.72
2022-11-05T21:24:42.672Z,3.00
2022-11-05T21:28:44.413Z,2.65
2022-11-05T21:32:46.034Z,2.67
2022-11-05T21:36:47.736Z,2.08
2022-11-05T21:40:49.820Z,2.85
2022-11-05T21:44:53.986Z,2.42
2022-11-05T21:48:59.507Z,2.50
2022-11-05T21:53:19.804Z,2.85
2022-11-05T21:57:40.218Z,2.28
2022-11-05T22:01:41.959Z,2.80
2022-11-05T22:05:43.778Z,2.67
2022-11-05T22:09:45.826Z,2.40
2022-11-05T22:13:47.483Z,2.97
2022-11-05T22:17:52.302Z,2.92
2022-11-05T22:21:54.027Z,2.22
2022-11-05T22:26:02.856Z,2.90
2022-11-05T22:30:05.203Z,2.53
2022-11-05T22:34:07.668Z,2.90
2022-11-05T22:38:09.540Z,2.65
2022-11-05T22:42:11.481Z,3.17
2022-11-05T22:46:22.384Z,2.60
2022-11-05T22:50:24.265Z,2.92
2022-11-05T22:54:26.074Z,2.63
2022-11-05T22:58:27.773Z,2.90
2022-11-05T23:02:29.533Z,2.83
2022-11-05T23:06:51.862Z,3.17
2022-11-05T23:11:12.184Z,2.60
2022-11-05T23:15:33.870Z,2.90
2022-11-05T23:19:54.214Z,3.50
2022-11-05T23:24:04.908Z,2.53
2022-11-05T23:28:10.066Z,3.33
2022-11-05T23:32:24.039Z,3.22
2022-11-05T23:36:44.302Z,2.72
2022-11-05T23:41:04.665Z,3.28
2022-11-05T23:45:25.466Z,2.72
2022-11-05T23:49:27.342Z,3.13
2022-11-05T23:53:31.268Z,3.33
2022-11-05T23:57:43.248Z,2.88
